Tuxedo Park, New York
Current Conditions -  °F | °C
As of 10:45 AM on Sunday 21 Dec 2014 (Local Time) from KSWF Reporting Station
Light Snow Light Snow  
Wind Chill: 23°   Ceiling: Unl
Heat Index: 28°   Visibility: 2.5mi
Dew Point: 27°   Wind: 5mph
Humidity: 93%   Direction: NA
Pressure: 30.33"   Gusts: NA
Location:  41.19°N, 74.18°W
Report Text: KSWF 211545Z VRB04KT 2 1/2SM -SN 0VC006 M02/M03 A3033
Loading
Personal Weather Stations






























Interactive Weather Map New forecast layout! Learn more

10-Day Weather Forecast

Advertisements
Track Severe Weather on mobile